Time;durP1;ratioP1;P1;durP2;ratioP2;P2;SDS_P1;SDS_P2;PMS_P1;PMS_P2;Temp;Humidity;BMP_temperature;BMP_pressure;BME280_temperature;BME280_humidity;BME280_pressure;Samples;Min_cycle;Max_cycle;Signal;HPM_P1;HPM_P2
2022/02/01 00:03:54;;;;;;;2.38;1.23;;;4.40;99.90;;;;;;4986628;28;20069;-81
2022/02/01 00:09:00;;;;;;;1.25;1.15;;;4.00;99.90;;;;;;4993360;28;20042;-80
2022/02/01 00:11:50;;;;;;;17.17;3.03;;;4.00;99.90;;;;;;4962508;28;20160;-82
2022/02/01 00:20:05;;;;;;;1.20;1.10;;;4.40;99.90;;;;;;4988086;28;20129;-84
2022/02/01 00:36:07;;;;;;;2.67;1.30;;;4.10;99.90;;;;;;4992924;28;20050;-81
2022/02/01 00:41:04;;;;;;;2.67;1.40;;;3.70;99.90;;;;;;4985067;28;20043;-82
2022/02/01 00:43:30;;;;;;;1.38;1.23;;;4.10;99.90;;;;;;4972580;28;20069;-83
2022/02/01 00:46:00;;;;;;;3.85;1.77;;;4.10;99.90;;;;;;4972967;28;20050;-83
2022/02/01 00:48:26;;;;;;;1.55;1.45;;;4.10;99.90;;;;;;4979393;28;20037;-82
2022/02/01 00:50:51;;;;;;;;;;;4.00;99.90;;;;;;4993708;28;20076;-82
2022/02/01 00:53:21;;;;;;;8.25;2.00;;;3.90;99.90;;;;;;4999993;28;20280;-85
2022/02/01 00:55:47;;;;;;;2.72;1.70;;;4.80;99.90;;;;;;4983570;28;20042;-83
2022/02/01 00:58:13;;;;;;;0.90;0.85;;;4.10;99.90;;;;;;4976701;28;20490;-81
2022/02/01 01:00:38;;;;;;;7.65;1.45;;;4.20;99.90;;;;;;4997468;28;20087;-84
2022/02/01 01:03:04;;;;;;;2.40;1.25;;;4.00;99.90;;;;;;5008909;28;20046;-80
2022/02/01 01:05:30;;;;;;;15.45;2.50;;;4.00;99.90;;;;;;4991585;28;20128;-82
2022/02/01 01:07:55;;;;;;;6.60;1.80;;;4.50;99.90;;;;;;4977043;28;20038;-84
2022/02/01 01:10:25;;;;;;;1.75;1.13;;;4.10;99.90;;;;;;4969017;28;20052;-80
2022/02/01 01:15:51;;;;;;;3.80;1.65;;;4.50;99.90;;;;;;4945657;28;20047;-80
2022/02/01 01:19:10;;;;;;;1.17;1.17;;;4.20;99.90;;;;;;4970216;28;20038;-83
2022/02/01 01:46:06;;;;;;;4.07;1.10;;;4.40;99.90;;;;;;5001003;28;20042;-85
2022/02/01 01:54:02;;;;;;;2.15;1.17;;;4.30;99.90;;;;;;4986234;28;20050;-82
2022/02/01 01:56:33;;;;;;;1.40;1.05;;;4.40;99.90;;;;;;4968250;28;20053;-83
2022/02/01 01:59:03;;;;;;;0.90;0.90;;;4.50;99.90;;;;;;4969693;28;20042;-80
2022/02/01 02:01:30;;;;;;;6.00;1.63;;;4.40;99.90;;;;;;4967990;28;20060;-81
2022/02/01 02:03:56;;;;;;;2.63;1.27;;;4.30;99.90;;;;;;4991321;28;20057;-82
2022/02/01 02:06:22;;;;;;;7.00;1.90;;;4.40;99.90;;;;;;4984820;28;20046;-81
2022/02/01 02:08:51;;;;;;;5.50;1.10;;;4.50;99.90;;;;;;4996026;28;20365;-83
2022/02/01 02:16:36;;;;;;;2.47;1.33;;;3.90;99.90;;;;;;4994515;28;20058;-82
2022/02/01 02:19:03;;;;;;;1.42;0.88;;;4.50;99.90;;;;;;4995479;28;20042;-84
2022/02/01 02:21:28;;;;;;;3.17;1.10;;;4.80;99.90;;;;;;4972984;28;20058;-83
2022/02/01 02:23:54;;;;;;;0.90;0.90;;;5.10;99.90;;;;;;4978933;28;20049;-83
2022/02/01 02:26:20;;;;;;;4.90;1.52;;;5.10;99.90;;;;;;4991105;28;20046;-81
2022/02/01 02:28:47;;;;;;;10.60;1.95;;;4.50;99.90;;;;;;4967794;28;20042;-80
2022/02/01 02:31:13;;;;;;;7.22;1.65;;;4.70;99.90;;;;;;4960051;28;20078;-85
2022/02/01 02:33:39;;;;;;;2.33;1.10;;;5.20;99.90;;;;;;4979400;28;20074;-80
2022/02/01 02:36:16;;;;;;;3.75;1.30;;;4.40;99.90;;;;;;4986711;28;20250;-80
2022/02/01 02:38:49;;;;;;;5.30;1.50;;;4.60;99.90;;;;;;4978619;28;20125;-81
2022/02/01 02:46:37;;;;;;;8.05;1.77;;;4.50;99.90;;;;;;4996073;28;20494;-82
2022/02/01 02:49:04;;;;;;;;;;;4.30;99.90;;;;;;4992694;28;20165;-84
2022/02/01 02:51:31;;;;;;;7.28;1.20;;;4.50;99.90;;;;;;4995081;28;19925;-83
2022/02/01 02:53:56;;;;;;;8.07;1.67;;;4.30;99.90;;;;;;4995755;28;20074;-80
2022/02/01 02:56:22;;;;;;;2.92;1.20;;;5.30;99.90;;;;;;4972414;28;20078;-81
2022/02/01 02:58:51;;;;;;;0.80;0.80;;;4.40;99.90;;;;;;4970407;28;20399;-81
2022/02/01 03:01:19;;;;;;;3.53;1.40;;;4.30;99.90;;;;;;4999230;28;20041;-84
2022/02/01 03:03:44;;;;;;;1.52;0.70;;;4.80;99.90;;;;;;4996660;28;20298;-84
2022/02/01 03:06:11;;;;;;;3.40;1.17;;;4.40;99.90;;;;;;4962801;28;20074;-81
2022/02/01 03:08:39;;;;;;;3.47;1.17;;;4.20;99.90;;;;;;4994887;28;20046;-83
2022/02/01 03:11:10;;;;;;;1.02;0.98;;;4.20;99.90;;;;;;4979835;28;20053;-81
2022/02/01 03:13:38;;;;;;;0.90;0.90;;;4.40;99.90;;;;;;4997248;28;20070;-82
2022/02/01 03:21:14;;;;;;;1.33;0.88;;;5.00;99.90;;;;;;4978172;28;20054;-84
2022/02/01 03:23:39;;;;;;;4.78;1.02;;;4.10;99.90;;;;;;4998025;28;20054;-81
2022/02/01 03:26:05;;;;;;;3.20;0.80;;;4.40;99.90;;;;;;4979777;28;20106;-83
2022/02/01 03:28:31;;;;;;;2.65;1.00;;;3.90;99.90;;;;;;4995003;28;20490;-84
2022/02/01 03:30:57;;;;;;;1.55;1.13;;;3.70;99.90;;;;;;4972640;28;20045;-83
2022/02/01 03:33:23;;;;;;;1.08;0.90;;;4.30;99.90;;;;;;4994148;28;20530;-82
2022/02/01 03:35:49;;;;;;;1.45;0.98;;;3.90;99.90;;;;;;4962800;28;20043;-84
2022/02/01 03:38:15;;;;;;;4.10;0.93;;;3.50;99.90;;;;;;4994070;28;20070;-81
2022/02/01 03:40:40;;;;;;;2.45;1.17;;;3.50;99.90;;;;;;4987470;28;20042;-82
2022/02/01 03:43:06;;;;;;;0.80;0.80;;;4.50;99.90;;;;;;4977949;28;20069;-83
2022/02/01 03:45:32;;;;;;;0.85;0.85;;;3.70;99.90;;;;;;4977898;28;20053;-82
2022/02/01 03:47:58;;;;;;;4.30;0.88;;;3.50;99.90;;;;;;4999710;28;20531;-84
2022/02/01 03:50:23;;;;;;;1.20;0.88;;;3.80;99.90;;;;;;4973569;28;20366;-82
2022/02/01 03:52:49;;;;;;;2.13;1.10;;;3.40;99.90;;;;;;4994831;28;20149;-82
2022/02/01 03:55:15;;;;;;;2.50;0.90;;;3.50;99.90;;;;;;4958496;28;20070;-85
2022/02/01 03:57:41;;;;;;;;;;;4.00;99.90;;;;;;4976540;28;20402;-85
2022/02/01 04:00:08;;;;;;;1.38;1.05;;;3.30;99.90;;;;;;4996736;28;20012;-85
2022/02/01 04:02:34;;;;;;;0.80;0.80;;;3.40;99.90;;;;;;4993112;28;20503;-83
2022/02/01 04:04:59;;;;;;;0.80;0.80;;;3.90;99.90;;;;;;4985591;28;20042;-81
2022/02/01 04:07:25;;;;;;;0.70;0.70;;;3.50;99.90;;;;;;4997019;28;20057;-84
2022/02/01 04:09:52;;;;;;;5.13;1.10;;;3.30;99.90;;;;;;4961704;28;20467;-80
2022/02/01 04:12:18;;;;;;;2.78;0.70;;;3.70;99.90;;;;;;4993141;28;20039;-81
2022/02/01 04:14:45;;;;;;;3.90;0.80;;;3.90;99.90;;;;;;4990648;28;20042;-82
2022/02/01 04:17:11;;;;;;;2.33;1.25;;;4.10;99.90;;;;;;4990002;28;20129;-82
2022/02/01 04:19:38;;;;;;;3.60;1.05;;;3.20;99.90;;;;;;4969926;28;20038;-83
2022/02/01 04:22:05;;;;;;;2.13;1.33;;;3.50;99.90;;;;;;4991372;28;20389;-82
2022/02/01 04:24:37;;;;;;;0.98;0.95;;;3.60;99.90;;;;;;4989122;28;20085;-81
2022/02/01 04:27:04;;;;;;;6.65;1.15;;;3.40;99.90;;;;;;4991309;28;20042;-80
2022/02/01 04:29:30;;;;;;;5.85;1.60;;;3.50;99.90;;;;;;4966299;28;20378;-83
2022/02/01 04:31:56;;;;;;;2.38;1.10;;;4.00;99.90;;;;;;4973580;28;20054;-81
2022/02/01 04:34:22;;;;;;;5.90;2.55;;;4.20;99.90;;;;;;4992490;28;20149;-83
2022/02/01 04:36:48;;;;;;;;;;;4.00;99.90;;;;;;4992976;28;20108;-82
2022/02/01 04:39:13;;;;;;;2.45;1.17;;;4.70;99.90;;;;;;4988246;28;19917;-83
2022/02/01 04:41:39;;;;;;;2.00;1.27;;;4.30;99.90;;;;;;4990725;28;20042;-82
2022/02/01 04:44:05;;;;;;;1.33;1.23;;;4.60;99.90;;;;;;4983202;28;20045;-77
2022/02/01 04:46:31;;;;;;;2.25;1.38;;;4.30;99.90;;;;;;4937528;28;20058;-82
2022/02/01 04:49:13;;;;;;;1.73;0.80;;;5.30;99.90;;;;;;4973047;28;20088;-80
2022/02/01 04:51:45;;;;;;;1.02;0.93;;;4.00;99.90;;;;;;4976636;28;20045;-83
2022/02/01 04:54:15;;;;;;;3.55;1.45;;;3.80;99.90;;;;;;4981887;28;20049;-83
2022/02/01 04:57:01;;;;;;;0.98;0.93;;;3.90;99.90;;;;;;4977797;28;20069;-85
2022/02/01 04:59:27;;;;;;;1.30;1.20;;;4.20;99.90;;;;;;4986287;28;20054;-84
2022/02/01 05:01:54;;;;;;;5.65;1.63;;;3.80;99.90;;;;;;4980984;28;20121;-83
2022/02/01 05:04:20;;;;;;;1.30;1.20;;;4.00;99.90;;;;;;4994320;28;20068;-82
2022/02/01 05:06:51;;;;;;;5.93;1.65;;;3.90;99.90;;;;;;4980606;28;20049;-82
2022/02/01 05:09:17;;;;;;;0.70;0.70;;;3.90;99.90;;;;;;4990880;28;20129;-82
2022/02/01 05:11:45;;;;;;;4.07;1.52;;;4.00;99.90;;;;;;4995084;28;20077;-84
2022/02/01 05:16:58;;;;;;;6.55;1.65;;;3.90;99.90;;;;;;5009967;28;19917;-82
2022/02/01 05:22:05;;;;;;;1.38;1.05;;;4.20;99.90;;;;;;4995112;28;20054;-82
2022/02/01 05:24:32;;;;;;;1.30;1.20;;;4.10;99.90;;;;;;4984668;28;20506;-80
2022/02/01 05:27:01;;;;;;;7.20;1.65;;;4.10;99.90;;;;;;4984672;28;20236;-81
2022/02/01 05:29:27;;;;;;;3.13;1.20;;;5.20;99.90;;;;;;4981943;28;20124;-76
2022/02/01 05:31:54;;;;;;;1.52;1.42;;;4.30;99.90;;;;;;4993749;28;20109;-82
2022/02/01 05:34:23;;;;;;;1.95;1.45;;;4.10;99.90;;;;;;4973335;28;20472;-83
2022/02/01 05:36:49;;;;;;;5.53;1.48;;;4.20;99.90;;;;;;4977848;28;20050;-82
2022/02/01 05:39:21;;;;;;;2.15;1.08;;;4.20;99.90;;;;;;4980130;28;20125;-81
2022/02/01 05:41:57;;;;;;;3.60;1.02;;;4.20;99.90;;;;;;4968481;28;20073;-85
2022/02/01 05:44:42;;;;;;;;;;;;;;;;;;;;;
2022/02/01 05:47:23;;;;;;;4.72;1.42;;;2.50;99.90;;;;;;4999351;28;20045;-83
2022/02/01 05:50:39;;;;;;;2.28;1.73;;;4.70;99.90;;;;;;4992193;28;20110;-83
2022/02/01 05:53:08;;;;;;;4.60;1.58;;;6.60;99.90;;;;;;4987488;28;20093;-82
2022/02/01 05:55:35;;;;;;;15.98;1.73;;;4.50;99.90;;;;;;4962593;28;20038;-81
2022/02/01 05:58:02;;;;;;;4.53;1.02;;;4.40;99.90;;;;;;4978243;28;20125;-81
2022/02/01 06:00:28;;;;;;;7.28;1.27;;;4.60;99.90;;;;;;4978839;28;20125;-84
2022/02/01 06:02:56;;;;;;;4.50;1.02;;;4.60;99.90;;;;;;4957886;28;20037;-81
2022/02/01 06:05:23;;;;;;;8.48;2.00;;;4.70;99.90;;;;;;4972293;28;20050;-78
2022/02/01 06:07:49;;;;;;;1.92;1.42;;;5.50;99.90;;;;;;4982021;28;20058;-81
2022/02/01 06:10:14;;;;;;;4.10;1.40;;;4.60;99.90;;;;;;4979430;28;20049;-80
2022/02/01 06:12:40;;;;;;;7.70;1.17;;;4.60;99.90;;;;;;4977751;28;20414;-80
2022/02/01 06:15:06;;;;;;;6.95;1.77;;;5.00;99.90;;;;;;4978612;28;20077;-79
2022/02/01 06:17:32;;;;;;;6.45;2.10;;;4.90;99.90;;;;;;4975500;28;20125;-78
2022/02/01 06:19:59;;;;;;;2.67;1.30;;;4.70;99.90;;;;;;4974454;28;20129;-84
2022/02/01 06:22:25;;;;;;;8.32;1.52;;;4.80;99.90;;;;;;4959865;28;20374;-81
2022/02/01 06:24:52;;;;;;;3.28;1.30;;;4.90;99.90;;;;;;4978845;28;20057;-79
2022/02/01 06:27:17;;;;;;;1.65;1.55;;;5.10;99.90;;;;;;4969337;28;20038;-81
2022/02/01 06:29:43;;;;;;;9.55;1.13;;;5.40;99.90;;;;;;4965544;28;20045;-78
2022/02/01 06:32:10;;;;;;;10.43;3.30;;;4.80;99.90;;;;;;4986196;28;20074;-81
2022/02/01 06:34:37;;;;;;;3.15;1.60;;;5.10;99.90;;;;;;4945434;28;20092;-78
2022/02/01 06:37:03;;;;;;;3.63;1.33;;;4.90;99.90;;;;;;4979604;28;20034;-79
2022/02/01 06:39:30;;;;;;;3.35;2.30;;;4.90;99.90;;;;;;4966522;28;20046;-79
2022/02/01 06:41:56;;;;;;;4.32;1.80;;;5.40;99.90;;;;;;4964167;28;20665;-79
2022/02/01 06:44:23;;;;;;;1.50;1.40;;;4.90;99.90;;;;;;4976522;28;20050;-83
2022/02/01 06:46:49;;;;;;;2.85;1.65;;;4.80;99.90;;;;;;4961226;28;20049;-80
2022/02/01 06:49:15;;;;;;;7.55;2.53;;;4.80;99.90;;;;;;4987744;28;20070;-77
2022/02/01 06:51:42;;;;;;;2.40;1.73;;;4.70;99.90;;;;;;4978160;28;20137;-79
2022/02/01 06:54:10;;;;;;;5.35;1.65;;;4.70;99.90;;;;;;4981025;28;20084;-84
2022/02/01 06:56:37;;;;;;;1.35;1.20;;;5.30;99.90;;;;;;4985211;28;20157;-81
2022/02/01 06:59:04;;;;;;;1.40;1.30;;;4.30;99.90;;;;;;4961500;28;20466;-82
2022/02/01 07:01:33;;;;;;;7.88;2.13;;;4.50;99.90;;;;;;4977946;28;20047;-79
2022/02/01 07:04:01;;;;;;;4.32;1.92;;;4.50;99.90;;;;;;4972734;28;20125;-80
2022/02/01 07:06:32;;;;;;;5.22;3.13;;;4.50;99.90;;;;;;4992021;28;20050;-80
2022/02/01 07:09:01;;;;;;;8.57;2.67;;;4.60;99.90;;;;;;4977501;28;20077;-81
2022/02/01 07:11:27;;;;;;;5.13;2.38;;;4.80;99.90;;;;;;4948893;28;20471;-78
2022/02/01 07:13:53;;;;;;;9.40;2.42;;;4.50;99.90;;;;;;4957273;28;20540;-78
2022/02/01 07:16:23;;;;;;;5.72;2.45;;;4.80;99.90;;;;;;4973895;28;20049;-83
2022/02/01 07:18:49;;;;;;;7.43;2.40;;;4.10;99.90;;;;;;4977375;28;20058;-79
2022/02/01 07:21:16;;;;;;;4.53;1.90;;;4.60;99.90;;;;;;4987990;28;20066;-82
2022/02/01 07:23:42;;;;;;;6.40;2.58;;;4.50;99.90;;;;;;4995128;28;20062;-81
2022/02/01 07:26:09;;;;;;;4.57;2.15;;;4.60;99.90;;;;;;4977765;28;20051;-78
2022/02/01 07:28:35;;;;;;;4.03;2.13;;;4.70;99.90;;;;;;4976173;28;20401;-80
2022/02/01 07:31:02;;;;;;;4.75;2.25;;;4.80;99.90;;;;;;4981742;28;20137;-81
2022/02/01 07:33:28;;;;;;;;;;;4.50;99.90;;;;;;4984324;28;20058;-81
2022/02/01 07:35:55;;;;;;;2.67;2.08;;;4.90;99.90;;;;;;4989194;28;19921;-76
2022/02/01 07:38:22;;;;;;;2.50;1.92;;;4.70;99.90;;;;;;4999263;28;20571;-77
2022/02/01 07:40:56;;;;;;;2.60;2.17;;;4.70;99.90;;;;;;4974967;28;20042;-75
2022/02/01 07:43:27;;;;;;;3.00;2.42;;;5.40;99.90;;;;;;4989971;28;20058;-81
2022/02/01 07:45:53;;;;;;;5.53;3.03;;;4.80;99.90;;;;;;4970045;28;20142;-79
2022/02/01 07:48:19;;;;;;;3.20;2.72;;;4.70;99.90;;;;;;4961431;28;20149;-77
2022/02/01 07:50:45;;;;;;;4.00;2.72;;;4.70;99.90;;;;;;4976162;28;20078;-78
2022/02/01 07:53:11;;;;;;;3.88;2.38;;;4.90;99.90;;;;;;4990603;28;20046;-80
2022/02/01 07:55:39;;;;;;;6.53;2.85;;;4.70;99.90;;;;;;4974601;28;20046;-80
2022/02/01 07:58:05;;;;;;;3.45;2.55;;;4.80;99.90;;;;;;4985422;28;20050;-79
2022/02/01 08:00:33;;;;;;;3.65;2.13;;;4.90;99.90;;;;;;4976990;28;20071;-85
2022/02/01 08:03:51;;;;;;;7.93;2.67;;;4.80;99.90;;;;;;4944314;28;20047;-83
2022/02/01 08:06:49;;;;;;;4.80;3.13;;;5.40;99.90;;;;;;4981612;28;20488;-87
2022/02/01 08:09:24;;;;;;;3.05;2.40;;;4.90;99.90;;;;;;4991144;28;20472;-84
2022/02/01 08:12:17;;;;;;;11.70;2.97;;;4.90;99.90;;;;;;4991941;28;20412;-82
2022/02/01 08:21:46;;;;;;;6.70;2.80;;;4.30;99.90;;;;;;4962720;28;20059;-81
2022/02/01 08:24:12;;;;;;;5.50;3.40;;;5.00;99.90;;;;;;4992437;28;20659;-81
2022/02/01 08:26:39;;;;;;;;;;;5.10;99.90;;;;;;4968424;28;20046;-82
2022/02/01 08:29:05;;;;;;;3.00;2.10;;;5.80;99.90;;;;;;5004993;28;19922;-84
2022/02/01 08:31:31;;;;;;;5.60;3.17;;;5.30;99.90;;;;;;4944812;28;20057;-82
2022/02/01 08:33:57;;;;;;;4.18;3.20;;;5.40;99.90;;;;;;4976470;28;20035;-78
2022/02/01 08:36:26;;;;;;;4.32;3.10;;;5.20;99.90;;;;;;5004989;28;20046;-82
2022/02/01 08:39:38;;;;;;;4.10;2.67;;;5.40;99.90;;;;;;4959105;28;20043;-84
2022/02/01 08:42:05;;;;;;;2.75;1.80;;;5.70;99.90;;;;;;4996532;28;20077;-82
2022/02/01 08:44:36;;;;;;;5.90;2.55;;;5.40;99.90;;;;;;4978425;28;20369;-79
2022/02/01 08:47:04;;;;;;;3.38;2.72;;;5.60;99.90;;;;;;4971748;28;20070;-80
2022/02/01 08:49:30;;;;;;;4.07;2.85;;;5.40;99.90;;;;;;4957548;28;20490;-82
2022/02/01 08:52:09;;;;;;;1.63;1.38;;;5.70;99.90;;;;;;4985797;28;20471;-80
2022/02/01 08:54:37;;;;;;;2.58;1.83;;;5.40;99.90;;;;;;4973992;28;20060;-82
2022/02/01 08:57:23;;;;;;;3.35;2.20;;;5.40;99.90;;;;;;4991871;28;20539;-78
2022/02/01 08:59:50;;;;;;;5.45;3.10;;;5.40;99.90;;;;;;4961577;28;20049;-79
2022/02/01 09:02:18;;;;;;;9.90;1.65;;;5.50;99.90;;;;;;4975783;28;20038;-82
2022/02/01 09:04:44;;;;;;;3.08;2.22;;;5.50;99.90;;;;;;4972446;28;20046;-81
2022/02/01 09:07:12;;;;;;;6.65;2.97;;;5.50;99.90;;;;;;4992353;28;20515;-81
2022/02/01 09:09:46;;;;;;;;;;;4.60;99.90;;;;;;4992514;28;20031;-79
2022/02/01 09:12:12;;;;;;;3.35;2.05;;;5.50;99.90;;;;;;4972153;28;19975;-80
2022/02/01 09:14:38;;;;;;;;;;;5.60;99.90;;;;;;4973494;28;20038;-80
2022/02/01 09:17:06;;;;;;;4.50;2.60;;;5.60;99.90;;;;;;4976898;28;19917;-78
2022/02/01 09:19:33;;;;;;;3.72;2.08;;;5.60;99.90;;;;;;4963959;28;20411;-81
2022/02/01 09:22:04;;;;;;;3.20;1.88;;;5.70;99.90;;;;;;4975655;28;20038;-82
2022/02/01 09:24:31;;;;;;;2.80;1.88;;;5.70;99.90;;;;;;4972106;28;20046;-81
2022/02/01 09:26:57;;;;;;;2.25;1.60;;;6.80;99.90;;;;;;4990876;28;20038;-81
2022/02/01 09:29:26;;;;;;;1.67;1.38;;;5.80;99.90;;;;;;4974535;28;20034;-81
2022/02/01 09:31:54;;;;;;;4.50;1.65;;;6.00;99.90;;;;;;4977231;28;20046;-81
2022/02/01 09:34:22;;;;;;;2.33;1.40;;;5.90;99.90;;;;;;4971959;28;20030;-81
2022/02/01 09:36:53;;;;;;;3.53;2.17;;;6.40;99.90;;;;;;4967659;28;20491;-79
2022/02/01 09:39:30;;;;;;;2.63;1.85;;;;;;;;;;4981596;28;20044;-83
2022/02/01 09:41:56;;;;;;;2.58;2.15;;;6.00;99.90;;;;;;5008503;28;20711;-81
2022/02/01 09:44:25;;;;;;;1.27;1.10;;;6.10;99.90;;;;;;4989570;28;20174;-81
2022/02/01 09:46:52;;;;;;;;;;;6.10;99.90;;;;;;4964196;28;20395;-79
2022/02/01 09:49:21;;;;;;;2.43;1.93;;;6.20;99.90;;;;;;4973343;28;19927;-83
2022/02/01 09:51:49;;;;;;;3.42;1.67;;;7.40;99.90;;;;;;4990535;28;20043;-85
2022/02/01 09:54:21;;;;;;;2.53;1.77;;;6.30;99.90;;;;;;4989613;28;20046;-81
2022/02/01 09:56:46;;;;;;;3.75;1.60;;;6.30;99.90;;;;;;4992175;28;20084;-80
2022/02/01 09:59:19;;;;;;;0.80;0.80;;;6.40;99.90;;;;;;4950387;28;20714;-81
2022/02/01 10:01:47;;;;;;;2.70;1.73;;;6.40;99.90;;;;;;4979455;28;20046;-81
2022/02/01 10:04:13;;;;;;;3.58;1.55;;;6.40;99.90;;;;;;5009974;28;20090;-79
2022/02/01 10:06:40;;;;;;;3.50;1.60;;;6.40;99.90;;;;;;4960722;28;20034;-80
2022/02/01 10:09:10;;;;;;;2.22;1.60;;;6.40;99.90;;;;;;4996022;28;20043;-79
2022/02/01 10:11:41;;;;;;;2.72;1.42;;;6.50;99.90;;;;;;4992721;28;20092;-82
2022/02/01 10:14:27;;;;;;;2.65;1.73;;;6.50;99.90;;;;;;4972892;28;20560;-81
2022/02/01 10:17:08;;;;;;;2.05;1.40;;;;;;;;;;4975133;28;20034;-85
2022/02/01 10:20:06;;;;;;;1.88;1.52;;;;;;;;;;4990680;28;20085;-83
2022/02/01 10:22:33;;;;;;;2.35;1.67;;;;;;;;;;4984153;28;20116;-82
2022/02/01 10:25:07;;;;;;;2.13;1.65;;;;;;;;;;4990167;28;20110;-83
2022/02/01 10:27:45;;;;;;;2.25;1.30;;;;;;;;;;4973764;28;20816;-86
2022/02/01 10:30:18;;;;;;;2.20;1.35;;;6.90;99.90;;;;;;4984042;28;20436;-83
2022/02/01 10:33:15;;;;;;;2.22;1.45;;;7.10;99.90;;;;;;4995656;28;20038;-85
2022/02/01 10:35:58;;;;;;;3.08;2.00;;;7.00;99.90;;;;;;4993236;28;20613;-84
2022/02/01 10:38:32;;;;;;;1.95;1.35;;;7.00;99.90;;;;;;4992164;28;20048;-80
2022/02/01 10:41:04;;;;;;;4.93;1.83;;;7.00;99.90;;;;;;4993458;28;20160;-82
2022/02/01 10:43:51;;;;;;;4.35;2.00;;;7.10;99.90;;;;;;4977107;28;20746;-82
2022/02/01 10:46:28;;;;;;;2.22;1.52;;;7.10;99.90;;;;;;4982125;28;20459;-83
2022/02/01 10:48:56;;;;;;;2.40;1.50;;;7.20;99.90;;;;;;4993142;28;20089;-83
2022/02/01 10:51:33;;;;;;;6.43;1.52;;;;;;;;;;4976530;28;20074;-82
2022/02/01 10:53:59;;;;;;;5.07;1.98;;;;;;;;;;4999425;28;20049;-82
2022/02/01 10:56:32;;;;;;;4.57;1.85;;;;;;;;;;4972453;28;20047;-82
2022/02/01 10:59:11;;;;;;;12.00;2.15;;;;;;;;;;4973495;28;20129;-85
2022/02/01 11:01:53;;;;;;;2.05;1.45;;;;;;;;;;4988867;28;20133;-82
2022/02/01 11:04:22;;;;;;;6.13;2.10;;;;;;;;;;4994740;28;20053;-84
2022/02/01 11:06:51;;;;;;;4.47;1.50;;;;;;;;;;4979014;28;20412;-85
2022/02/01 11:09:23;;;;;;;3.67;2.15;;;;;;;;;;4992410;28;20045;-86
2022/02/01 11:12:30;;;;;;;4.30;1.70;;;;;;;;;;4982440;28;20046;-84
2022/02/01 11:15:21;;;;;;;3.45;1.55;;;;;;;;;;4988929;28;20057;-81
2022/02/01 11:17:50;;;;;;;2.65;1.83;;;;;;;;;;4993645;28;20073;-83
2022/02/01 11:20:28;;;;;;;2.30;1.65;;;;;;;;;;4958415;28;20041;-82
2022/02/01 11:23:03;;;;;;;4.55;2.25;;;;;;;;;;5008448;28;20066;-85
2022/02/01 11:25:47;;;;;;;7.30;2.45;;;7.40;99.90;;;;;;4983074;28;20514;-83
2022/02/01 11:28:46;;;;;;;3.78;1.75;;;;;;;;;;4989145;28;20443;-82
2022/02/01 11:31:15;;;;;;;3.92;1.98;;;7.40;99.90;;;;;;4977616;28;20593;-79
2022/02/01 11:33:54;;;;;;;10.50;2.90;;;7.60;99.90;;;;;;4976925;28;20041;-81
2022/02/01 11:36:24;;;;;;;6.82;2.83;;;;;;;;;;4959629;28;20655;-81
2022/02/01 11:38:52;;;;;;;5.80;2.13;;;;;;;;;;4975244;28;20046;-80
2022/02/01 11:41:47;;;;;;;10.13;3.35;;;7.50;99.90;;;;;;4976986;28;20074;-81
2022/02/01 11:44:25;;;;;;;6.15;2.45;;;7.50;99.90;;;;;;4978216;28;20042;-81
2022/02/01 11:47:21;;;;;;;6.18;2.03;;;7.50;99.90;;;;;;4984522;28;20052;-81
2022/02/01 11:50:34;;;;;;;6.03;2.30;;;7.50;99.90;;;;;;4942505;28;20121;-83
2022/02/01 11:53:00;;;;;;;6.57;2.35;;;7.50;99.90;;;;;;4985100;28;20150;-84
2022/02/01 11:55:40;;;;;;;2.33;1.58;;;7.60;99.90;;;;;;4978941;28;20504;-84
2022/02/01 11:58:06;;;;;;;2.80;1.40;;;7.50;99.90;;;;;;4971830;28;20034;-82
2022/02/01 12:00:38;;;;;;;5.20;1.95;;;7.60;99.90;;;;;;4975003;28;20042;-79
2022/02/01 12:03:05;;;;;;;1.88;1.38;;;7.60;99.90;;;;;;4970535;28;20181;-81
2022/02/01 12:05:36;;;;;;;2.28;1.48;;;7.70;99.90;;;;;;4983010;28;20503;-79
2022/02/01 12:08:14;;;;;;;7.30;2.03;;;7.60;99.90;;;;;;4974451;28;20042;-81
2022/02/01 12:10:51;;;;;;;7.10;1.88;;;7.80;99.90;;;;;;4975109;28;20721;-77
2022/02/01 12:13:21;;;;;;;6.18;1.30;;;7.90;99.90;;;;;;4991854;28;20038;-80
2022/02/01 12:15:49;;;;;;;5.82;2.28;;;7.70;99.90;;;;;;4971350;28;20044;-80
2022/02/01 12:18:27;;;;;;;7.72;1.92;;;7.70;99.90;;;;;;4988820;28;20053;-79
2022/02/01 12:21:30;;;;;;;1.50;1.13;;;7.90;99.90;;;;;;4990178;28;20053;-83
2022/02/01 12:24:05;;;;;;;11.30;2.28;;;7.90;99.90;;;;;;4998170;28;20082;-80
2022/02/01 12:26:37;;;;;;;13.73;2.92;;;7.90;99.90;;;;;;4960934;28;20144;-78
2022/02/01 12:29:09;;;;;;;7.30;1.50;;;7.90;99.90;;;;;;4982331;28;20209;-80
2022/02/01 12:31:38;;;;;;;4.80;1.70;;;7.90;99.90;;;;;;4993330;28;20069;-85
2022/02/01 12:34:13;;;;;;;8.20;1.92;;;7.90;99.90;;;;;;4974446;28;20053;-80
2022/02/01 12:36:53;;;;;;;2.88;1.55;;;8.10;99.90;;;;;;5001924;28;20048;-77
2022/02/01 12:39:35;;;;;;;4.22;1.80;;;8.30;99.90;;;;;;4959416;28;20046;-80
2022/02/01 12:42:15;;;;;;;3.70;2.30;;;7.90;99.90;;;;;;4971684;28;20522;-77
2022/02/01 12:47:21;;;;;;;6.18;2.08;;;7.90;99.90;;;;;;4992679;28;20492;-80
2022/02/01 12:49:53;;;;;;;12.63;2.25;;;8.00;99.90;;;;;;4973892;28;20081;-80
2022/02/01 12:52:22;;;;;;;4.72;0.95;;;8.10;99.90;;;;;;4975523;28;20053;-81
2022/02/01 12:54:57;;;;;;;6.82;2.08;;;8.00;99.90;;;;;;4982946;28;20049;-77
2022/02/01 12:57:23;;;;;;;9.40;1.75;;;8.00;99.90;;;;;;4973191;28;20073;-80
2022/02/01 13:00:02;;;;;;;4.53;1.98;;;8.00;99.90;;;;;;4978210;28;20095;-82
2022/02/01 13:02:31;;;;;;;3.83;1.50;;;8.00;99.90;;;;;;4992768;28;20053;-82
2022/02/01 13:04:59;;;;;;;5.13;1.63;;;8.00;99.90;;;;;;4998981;28;20065;-79
2022/02/01 13:15:47;;;;;;;3.88;2.10;;;8.00;99.90;;;;;;5008332;28;20050;-78
2022/02/01 13:18:24;;;;;;;1.33;0.95;;;8.00;99.90;;;;;;4971108;28;20392;-81
2022/02/01 13:21:14;;;;;;;5.43;1.75;;;8.00;99.90;;;;;;4966793;28;20049;-77
2022/02/01 13:23:59;;;;;;;4.80;1.60;;;8.00;99.90;;;;;;4971258;28;20084;-82
2022/02/01 13:26:31;;;;;;;4.47;2.20;;;8.00;99.90;;;;;;4975422;28;20100;-80
2022/02/01 13:29:10;;;;;;;5.30;1.55;;;8.10;99.90;;;;;;4984178;28;20388;-79
2022/02/01 13:31:47;;;;;;;11.75;2.33;;;8.10;99.90;;;;;;4992319;28;20046;-77
2022/02/01 13:34:14;;;;;;;10.15;2.00;;;8.10;99.90;;;;;;4989665;28;20408;-75
2022/02/01 13:36:48;;;;;;;7.07;2.05;;;8.10;99.90;;;;;;4975054;28;20464;-81
2022/02/01 13:39:38;;;;;;;13.30;2.35;;;8.10;99.90;;;;;;4989552;28;20062;-81
2022/02/01 13:42:09;;;;;;;4.93;1.73;;;8.10;99.90;;;;;;4980924;28;20042;-77
2022/02/01 13:44:36;;;;;;;9.98;1.95;;;8.10;99.90;;;;;;4972936;28;20057;-81
2022/02/01 13:47:02;;;;;;;6.43;1.60;;;8.10;99.90;;;;;;4971973;28;20498;-79
2022/02/01 13:49:28;;;;;;;8.70;2.15;;;8.10;99.90;;;;;;4977230;28;20176;-78
2022/02/01 13:51:54;;;;;;;9.55;2.63;;;8.10;99.90;;;;;;4985465;28;20403;-81
2022/02/01 13:54:20;;;;;;;;;;;8.10;99.90;;;;;;4976185;28;20096;-78
2022/02/01 13:56:48;;;;;;;2.28;1.13;;;8.10;99.90;;;;;;4990422;28;19976;-81
2022/02/01 13:59:21;;;;;;;4.20;1.67;;;8.10;99.90;;;;;;4984458;28;20790;-83
2022/02/01 14:01:48;;;;;;;1.90;1.08;;;8.10;99.90;;;;;;4973191;28;20098;-81
2022/02/01 14:04:25;;;;;;;5.55;2.28;;;8.20;99.90;;;;;;4989915;28;20092;-80
2022/02/01 14:07:31;;;;;;;6.38;2.30;;;8.20;99.90;;;;;;4989481;28;20046;-79
2022/02/01 14:10:15;;;;;;;9.20;2.08;;;8.20;99.90;;;;;;4964868;28;20048;-79
2022/02/01 14:34:04;;;;;;;8.02;2.83;;;8.10;99.90;;;;;;4994754;28;20502;-80
2022/02/01 14:36:39;;;;;;;6.43;2.35;;;8.00;99.90;;;;;;4987376;28;20054;-79
2022/02/01 14:42:52;;;;;;;10.18;2.47;;;8.00;99.90;;;;;;4973954;28;20057;-84
2022/02/01 14:44:50;;;;;;;9.02;2.70;;;8.00;99.90;;;;;;5008042;28;20089;-82
2022/02/01 14:47:17;;;;;;;;;;;7.70;99.90;;;;;;4953056;28;20101;-80
2022/02/01 14:49:59;;;;;;;2.65;1.77;;;8.00;99.90;;;;;;4977862;28;20324;-84
2022/02/01 14:52:27;;;;;;;6.20;1.70;;;8.10;99.90;;;;;;4984148;28;20068;-84
2022/02/01 14:54:58;;;;;;;5.85;1.80;;;8.00;99.90;;;;;;4983490;28;20073;-80
2022/02/01 15:11:26;;;;;;;13.82;2.88;;;8.10;99.90;;;;;;4984210;28;20034;-81
2022/02/01 15:13:52;;;;;;;14.40;3.50;;;8.40;99.90;;;;;;4996299;28;20038;-82
2022/02/01 15:16:19;;;;;;;13.93;2.55;;;8.50;99.90;;;;;;4974874;28;20058;-87
2022/02/01 15:18:45;;;;;;;11.63;2.60;;;8.10;99.90;;;;;;4982181;28;20237;-76
2022/02/01 15:21:14;;;;;;;9.45;2.28;;;8.00;99.90;;;;;;4989074;28;20117;-79
2022/02/01 15:23:41;;;;;;;9.48;2.22;;;8.10;99.90;;;;;;4975137;28;20050;-81
2022/02/01 15:26:09;;;;;;;4.88;1.80;;;8.00;99.90;;;;;;4982851;28;20049;-80
2022/02/01 15:28:34;;;;;;;9.52;2.45;;;8.00;99.90;;;;;;4974678;28;20169;-79
2022/02/01 15:31:02;;;;;;;9.25;3.40;;;7.90;99.90;;;;;;4992470;28;20117;-81
2022/02/01 15:33:29;;;;;;;10.23;2.33;;;7.90;99.90;;;;;;4963637;28;20053;-82
2022/02/01 15:36:01;;;;;;;13.20;2.85;;;7.90;99.90;;;;;;4976319;28;20034;-80
2022/02/01 15:38:31;;;;;;;11.90;2.67;;;7.90;99.90;;;;;;5007098;28;20097;-82
2022/02/01 15:55:14;;;;;;;7.05;1.90;;;7.90;99.90;;;;;;4990344;28;20046;-81
2022/02/01 15:57:45;;;;;;;10.82;2.85;;;7.90;99.90;;;;;;4967221;28;20084;-81
2022/02/01 16:00:21;;;;;;;11.27;2.70;;;7.80;99.90;;;;;;4983119;28;20100;-81